METAR AND TAF INFORMATION
METAR FOR SBBH
ADDS - METARS form results

(0936 UTC 19 January 2019)
Data provider http://aviationweather.gov/metar/data/
 
METAR text: SBBH 190900Z 07004KT CAVOK 22/17 Q1018
Conditions at: SBBH (BELO HORIZ/PAMPU, BR) observed 0900 UTC 19 January 2019
Temperature: 22.0°C (72°F)
Dewpoint: 17.0°C (63°F) [RH = 73%]
Pressure (altimeter): 30.06 inches Hg (1018.0 mb)
Winds: from the ENE (70 degrees) at 5 MPH (4 knots; 2.1 m/s)
Visibility: 6 or more miles (10+ km)
Ceiling: ceiling and visibility are OK
Clouds: unknown
Weather: no significant weather observed at this time

 AIRPORT MAP

 RUNWAY INFORMATION
Runway 13 Runway length 8333 ft Runway width 148 ft
Runway elevation 0 ft Runway displaced threshold 0 ft Runway heading 0
Runway 31 Runway length 8333 ft Runway width 148 ft
Runway elevation 0 ft Runway displaced threshold 0 ft Runway heading 0

 AIRPORT FREQUENCIES
Type APP Name BELO HORIZ Frequency 120.2 MHZ
Type ATIS Name BELO HORIZ Frequency 127.45 MHZ
Type CLD Name BELO HORIZ Frequency 121.1 MHZ
Type GND Name GND Frequency 121.6 MHZ
Type OPS Name SAO PAULO Frequency 122.5 MHZ
Type TWR Name BELO HORIZ Frequency 118 MHZ

 AIRPORT NEAR NAVIGATION AIDS
Type VOR-DME Name Belo Horizonte Frequency 117700 KHZ
Type NDB Name Belo Horizonte Frequency 520 KHZ



Powered by Virtual Airlines Manager [v2.6.2]